createdAt,value
2023-05-02T00:02:18.065Z,100.00
2023-05-02T00:04:51.060Z,100.00
2023-05-02T00:07:24.170Z,100.00
2023-05-02T00:09:57.009Z,100.00
2023-05-02T00:12:30.335Z,100.00
2023-05-02T00:15:03.181Z,100.00
2023-05-02T00:17:36.516Z,100.00
2023-05-02T00:20:11.917Z,100.00
2023-05-02T00:22:44.696Z,100.00
2023-05-02T00:25:17.678Z,100.00
2023-05-02T00:27:51.495Z,100.00
2023-05-02T00:30:24.442Z,100.00
2023-05-02T00:32:57.789Z,100.00
2023-05-02T00:35:30.973Z,100.00
2023-05-02T00:38:03.816Z,100.00
2023-05-02T00:40:52.474Z,100.00
2023-05-02T00:43:26.409Z,100.00
2023-05-02T00:45:59.189Z,100.00
2023-05-02T00:48:32.653Z,100.00
2023-05-02T00:51:06.703Z,100.00
2023-05-02T00:53:40.502Z,100.00
2023-05-02T00:56:13.323Z,100.00
2023-05-02T00:58:46.573Z,100.00
2023-05-02T01:01:30.285Z,100.00
2023-05-02T01:04:13.860Z,100.00
2023-05-02T01:07:02.016Z,100.00
2023-05-02T01:10:19.247Z,100.00
2023-05-02T01:13:26.106Z,100.00
2023-05-02T01:16:01.702Z,100.00
2023-05-02T01:18:40.228Z,100.00
2023-05-02T01:21:14.212Z,100.00
2023-05-02T01:24:10.045Z,100.00
2023-05-02T01:27:08.424Z,100.00
2023-05-02T01:29:42.727Z,100.00
2023-05-02T01:32:17.712Z,100.00
2023-05-02T01:34:51.080Z,100.00
2023-05-02T01:37:26.324Z,100.00
2023-05-02T01:39:59.877Z,100.00
2023-05-02T01:42:38.164Z,100.00
2023-05-02T01:45:12.731Z,100.00
2023-05-02T01:47:47.327Z,100.00
2023-05-02T01:50:23.860Z,100.00
2023-05-02T01:52:57.402Z,100.00
2023-05-02T01:55:31.061Z,100.00
2023-05-02T01:58:04.605Z,100.00
2023-05-02T02:00:39.463Z,100.00
2023-05-02T02:03:12.824Z,100.00
2023-05-02T02:05:46.444Z,100.00
2023-05-02T02:08:19.611Z,100.00
2023-05-02T02:10:57.358Z,100.00
2023-05-02T02:13:40.560Z,100.00
2023-05-02T02:16:16.534Z,100.00
2023-05-02T02:18:49.334Z,100.00
2023-05-02T02:21:24.127Z,100.00
2023-05-02T02:23:58.595Z,100.00
2023-05-02T02:26:32.212Z,100.00
2023-05-02T02:29:05.897Z,100.00
2023-05-02T02:31:40.222Z,100.00
2023-05-02T02:34:13.687Z,100.00
2023-05-02T02:36:59.410Z,100.00
2023-05-02T02:40:01.555Z,100.00
2023-05-02T02:43:06.872Z,100.00
2023-05-02T02:45:48.700Z,100.00
2023-05-02T02:48:42.882Z,100.00
2023-05-02T02:51:28.858Z,100.00
2023-05-02T02:54:26.977Z,100.00
2023-05-02T02:57:27.193Z,100.00
2023-05-02T03:00:10.999Z,100.00
2023-05-02T03:02:49.055Z,100.00
2023-05-02T03:05:23.688Z,100.00
2023-05-02T03:07:57.007Z,100.00
2023-05-02T03:10:30.850Z,100.00
2023-05-02T03:13:03.954Z,100.00
2023-05-02T03:15:58.449Z,100.00
2023-05-02T03:18:31.069Z,100.00
2023-05-02T03:21:03.917Z,100.00
2023-05-02T03:23:37.051Z,100.00
2023-05-02T03:26:10.008Z,100.00
2023-05-02T03:28:45.069Z,100.00
2023-05-02T03:31:19.067Z,100.00
2023-05-02T03:33:53.466Z,100.00
2023-05-02T03:36:26.542Z,100.00
2023-05-02T03:39:00.078Z,100.00
2023-05-02T03:41:34.774Z,100.00
2023-05-02T03:44:09.270Z,100.00
2023-05-02T03:46:42.465Z,100.00
2023-05-02T03:49:15.913Z,100.00
2023-05-02T03:51:49.144Z,100.00
2023-05-02T03:54:24.369Z,100.00
2023-05-02T03:56:58.408Z,100.00
2023-05-02T03:59:37.573Z,100.00
2023-05-02T04:02:11.929Z,100.00
2023-05-02T04:04:46.667Z,100.00
2023-05-02T04:07:21.489Z,100.00
2023-05-02T04:09:59.120Z,100.00
2023-05-02T04:12:33.153Z,100.00
2023-05-02T04:15:07.720Z,100.00
2023-05-02T04:17:41.043Z,100.00
2023-05-02T04:20:16.220Z,100.00
2023-05-02T04:22:50.951Z,100.00
2023-05-02T04:25:23.825Z,100.00
2023-05-02T04:27:58.931Z,100.00
2023-05-02T04:30:32.541Z,100.00
2023-05-02T04:33:07.150Z,100.00
2023-05-02T04:35:44.819Z,100.00
2023-05-02T04:38:20.532Z,100.00
2023-05-02T04:40:55.135Z,100.00
2023-05-02T04:43:29.993Z,100.00
2023-05-02T04:46:04.720Z,100.00
2023-05-02T04:48:41.242Z,100.00
2023-05-02T04:51:16.953Z,100.00
2023-05-02T04:53:50.735Z,100.00
2023-05-02T04:56:24.594Z,100.00
2023-05-02T04:58:57.439Z,100.00
2023-05-02T05:01:31.245Z,100.00
2023-05-02T05:04:05.372Z,100.00
2023-05-02T05:06:38.738Z,100.00
2023-05-02T05:09:11.575Z,100.00
2023-05-02T05:11:46.426Z,100.00
2023-05-02T05:14:20.263Z,100.00
2023-05-02T05:16:54.708Z,100.00
2023-05-02T05:19:28.169Z,100.00
2023-05-02T05:22:01.414Z,100.00
2023-05-02T05:24:34.492Z,100.00
2023-05-02T05:27:07.486Z,100.00
2023-05-02T05:29:42.297Z,100.00
2023-05-02T05:32:15.655Z,100.00
2023-05-02T05:34:54.267Z,100.00
2023-05-02T05:37:28.886Z,100.00
2023-05-02T05:40:02.696Z,100.00
2023-05-02T05:42:36.181Z,100.00
2023-05-02T05:45:12.620Z,100.00
2023-05-02T05:47:45.758Z,100.00
2023-05-02T05:50:19.456Z,100.00
2023-05-02T05:52:52.703Z,100.00
2023-05-02T05:55:25.446Z,100.00
2023-05-02T05:57:59.116Z,100.00
2023-05-02T06:00:32.569Z,100.00
2023-05-02T06:03:09.877Z,100.00
2023-05-02T06:05:42.709Z,100.00
2023-05-02T06:08:15.662Z,100.00
2023-05-02T06:10:48.645Z,100.00
2023-05-02T06:13:21.624Z,100.00
2023-05-02T06:15:55.508Z,100.00
2023-05-02T06:18:29.431Z,100.00
2023-05-02T06:21:07.318Z,100.00
2023-05-02T06:23:41.405Z,100.00
2023-05-02T06:26:14.332Z,100.00
2023-05-02T06:28:47.724Z,97.32
2023-05-02T06:31:20.648Z,97.20
2023-05-02T06:33:54.078Z,96.39
2023-05-02T06:36:27.993Z,95.42
2023-05-02T06:39:00.518Z,95.60
2023-05-02T06:41:33.411Z,92.24
2023-05-02T06:44:06.497Z,91.51
2023-05-02T06:46:39.702Z,90.37
2023-05-02T06:49:12.955Z,91.50
2023-05-02T06:51:45.979Z,86.87
2023-05-02T06:54:18.988Z,82.54
2023-05-02T06:56:51.879Z,82.44
2023-05-02T06:59:24.854Z,80.48
2023-05-02T07:01:57.971Z,77.59
2023-05-02T07:04:30.889Z,73.86
2023-05-02T07:07:04.359Z,70.73
2023-05-02T07:09:40.425Z,69.57
2023-05-02T07:12:13.300Z,69.58
2023-05-02T07:14:47.210Z,62.53
2023-05-02T07:17:20.135Z,63.54
2023-05-02T07:19:53.647Z,65.95
2023-05-02T07:22:26.960Z,60.42
2023-05-02T07:25:02.731Z,62.06
2023-05-02T07:27:37.144Z,58.83
2023-05-02T07:30:10.933Z,57.96
2023-05-02T07:32:43.971Z,58.10
2023-05-02T07:35:17.340Z,58.75
2023-05-02T07:37:50.089Z,60.22
2023-05-02T07:40:23.627Z,61.20
2023-05-02T07:42:56.445Z,61.90
2023-05-02T07:45:29.605Z,62.08
2023-05-02T07:48:04.242Z,60.60
2023-05-02T07:50:37.621Z,60.88
2023-05-02T07:53:11.458Z,60.43
2023-05-02T07:55:44.466Z,57.32
2023-05-02T07:58:17.215Z,57.85
2023-05-02T08:00:50.804Z,58.36
2023-05-02T08:03:23.779Z,59.21
2023-05-02T08:05:57.198Z,57.69
2023-05-02T08:08:30.268Z,56.66
2023-05-02T08:11:03.260Z,55.71
2023-05-02T08:13:36.323Z,57.73
2023-05-02T08:16:09.445Z,57.98
2023-05-02T08:18:42.553Z,53.98
2023-05-02T08:21:15.663Z,54.47
2023-05-02T08:23:48.535Z,53.54
2023-05-02T08:26:22.129Z,55.19
2023-05-02T08:28:56.713Z,56.91
2023-05-02T08:31:29.707Z,55.60
2023-05-02T08:34:02.600Z,53.54
2023-05-02T08:36:37.646Z,54.87
2023-05-02T08:39:10.998Z,54.66
2023-05-02T08:41:45.274Z,54.46
2023-05-02T08:44:18.490Z,53.54
2023-05-02T08:46:52.311Z,53.98
2023-05-02T08:49:27.572Z,55.06
2023-05-02T08:52:02.568Z,53.63
2023-05-02T08:54:35.979Z,53.97
2023-05-02T08:57:09.086Z,54.23
2023-05-02T08:59:43.593Z,54.52
2023-05-02T09:02:21.281Z,54.55
2023-05-02T09:04:56.614Z,53.07
2023-05-02T09:07:29.439Z,53.41
2023-05-02T09:10:02.342Z,51.55
2023-05-02T09:12:36.979Z,50.52
2023-05-02T09:15:12.579Z,48.37
2023-05-02T09:17:47.701Z,46.32
2023-05-02T09:20:20.402Z,46.09
2023-05-02T09:22:54.469Z,45.77
2023-05-02T09:25:27.455Z,48.22
2023-05-02T09:28:02.198Z,46.00
2023-05-02T09:30:35.466Z,46.83
2023-05-02T09:33:08.322Z,47.84
2023-05-02T09:35:46.033Z,46.44
2023-05-02T09:38:22.787Z,44.95
2023-05-02T09:40:58.959Z,44.19
2023-05-02T09:43:33.743Z,45.34
2023-05-02T09:46:09.500Z,45.34
2023-05-02T09:49:00.200Z,45.56
2023-05-02T09:51:32.978Z,45.78
2023-05-02T09:54:06.218Z,44.26
2023-05-02T09:56:58.931Z,44.77
2023-05-02T09:59:32.236Z,43.59
2023-05-02T10:02:07.802Z,42.45
2023-05-02T10:04:42.148Z,43.31
2023-05-02T10:07:16.354Z,40.69
2023-05-02T10:09:50.690Z,41.39
2023-05-02T10:12:24.815Z,41.73
2023-05-02T10:15:02.006Z,42.27
2023-05-02T10:17:43.862Z,41.25
2023-05-02T10:20:28.245Z,42.35
2023-05-02T10:23:02.959Z,41.51
2023-05-02T10:25:36.740Z,41.75
2023-05-02T10:28:09.774Z,41.76
2023-05-02T10:30:43.388Z,42.48
2023-05-02T10:33:16.776Z,43.65
2023-05-02T10:35:49.697Z,43.05
2023-05-02T10:38:24.962Z,41.70
2023-05-02T10:41:02.662Z,41.34
2023-05-02T10:43:38.230Z,40.48
2023-05-02T10:46:36.816Z,41.51
2023-05-02T10:49:12.699Z,40.62
2023-05-02T10:51:46.262Z,39.24
2023-05-02T10:54:25.957Z,40.51
2023-05-02T10:57:07.855Z,40.14
2023-05-02T10:59:46.817Z,40.10
2023-05-02T11:02:32.926Z,40.17
2023-05-02T11:05:08.560Z,39.33
2023-05-02T11:07:41.669Z,38.61
2023-05-02T11:10:26.635Z,37.21
2023-05-02T11:13:01.635Z,36.96
2023-05-02T11:15:45.277Z,37.95
2023-05-02T11:18:18.570Z,38.04
2023-05-02T11:20:52.845Z,38.34
2023-05-02T11:23:26.696Z,37.05
2023-05-02T11:26:04.782Z,36.76
2023-05-02T11:28:44.136Z,36.63
2023-05-02T11:31:34.858Z,36.02
2023-05-02T11:34:07.748Z,34.52
2023-05-02T11:36:41.041Z,36.39
2023-05-02T11:39:22.802Z,35.18
2023-05-02T11:41:55.880Z,36.05
2023-05-02T11:44:28.997Z,36.42
2023-05-02T11:47:04.138Z,36.70
2023-05-02T11:49:38.036Z,36.97
2023-05-02T11:52:11.229Z,38.10
2023-05-02T11:54:44.345Z,39.93
2023-05-02T11:57:17.754Z,39.20
2023-05-02T11:59:59.333Z,39.33
2023-05-02T12:02:40.669Z,37.91
2023-05-02T12:05:16.845Z,38.04
2023-05-02T12:07:50.220Z,37.59
2023-05-02T12:10:23.086Z,37.49
2023-05-02T12:13:01.060Z,38.45
2023-05-02T12:15:34.333Z,37.43
2023-05-02T12:18:07.646Z,37.19
2023-05-02T12:20:40.521Z,37.43
2023-05-02T12:23:14.319Z,37.21
2023-05-02T12:25:47.711Z,37.26
2023-05-02T12:28:23.068Z,37.96
2023-05-02T12:30:56.175Z,37.82
2023-05-02T12:33:28.913Z,37.25
2023-05-02T12:36:08.622Z,37.08
2023-05-02T12:38:41.496Z,37.35
2023-05-02T12:41:14.835Z,37.11
2023-05-02T12:43:51.501Z,36.95
2023-05-02T12:46:24.804Z,36.75
2023-05-02T12:49:08.401Z,37.48
2023-05-02T12:51:42.388Z,37.79
2023-05-02T12:54:22.715Z,37.25
2023-05-02T12:56:55.641Z,36.76
2023-05-02T12:59:31.128Z,36.05
2023-05-02T13:02:04.575Z,36.32
2023-05-02T13:04:42.411Z,34.39
2023-05-02T13:07:15.449Z,33.96
2023-05-02T13:09:48.335Z,34.76
2023-05-02T13:12:21.839Z,34.78
2023-05-02T13:14:54.721Z,34.21
2023-05-02T13:17:27.945Z,35.14
2023-05-02T13:20:02.589Z,35.52
2023-05-02T13:22:37.804Z,35.92
2023-05-02T13:25:11.790Z,35.94
2023-05-02T13:27:46.359Z,36.44
2023-05-02T13:30:19.455Z,37.15
2023-05-02T13:32:52.893Z,36.88
2023-05-02T13:35:26.053Z,37.02
2023-05-02T13:37:58.922Z,35.88
2023-05-02T13:40:32.067Z,36.99
2023-05-02T13:43:05.264Z,37.48
2023-05-02T13:45:38.060Z,36.20
2023-05-02T13:48:11.182Z,35.76
2023-05-02T13:50:44.098Z,34.52
2023-05-02T13:53:17.048Z,34.54
2023-05-02T13:55:49.866Z,34.34
2023-05-02T13:58:22.919Z,34.64
2023-05-02T14:00:55.850Z,34.80
2023-05-02T14:03:28.953Z,34.57
2023-05-02T14:06:02.013Z,34.85
2023-05-02T14:08:36.032Z,35.41
2023-05-02T14:11:08.904Z,34.83
2023-05-02T14:13:41.930Z,35.20
2023-05-02T14:16:14.604Z,35.53
2023-05-02T14:18:49.800Z,34.46
2023-05-02T14:21:22.773Z,34.77
2023-05-02T14:23:55.703Z,34.91
2023-05-02T14:26:28.433Z,35.16
2023-05-02T14:29:01.895Z,34.44
2023-05-02T14:31:35.034Z,34.33
2023-05-02T14:34:09.070Z,34.99
2023-05-02T14:36:43.061Z,34.56
2023-05-02T14:39:16.304Z,34.84
2023-05-02T14:41:49.041Z,35.14
2023-05-02T14:44:21.973Z,33.71
2023-05-02T14:46:56.875Z,34.14
2023-05-02T14:49:30.016Z,35.34
2023-05-02T14:52:03.013Z,35.61
2023-05-02T14:54:36.251Z,36.59
2023-05-02T14:57:09.176Z,36.47
2023-05-02T14:59:42.092Z,35.79
2023-05-02T15:02:15.319Z,35.71
2023-05-02T15:04:48.297Z,35.79
2023-05-02T15:07:21.164Z,36.24
2023-05-02T15:09:54.043Z,36.19
2023-05-02T15:12:27.076Z,35.71
2023-05-02T15:15:00.269Z,35.89
2023-05-02T15:17:33.380Z,34.84
2023-05-02T15:20:07.122Z,35.12
2023-05-02T15:22:40.091Z,35.78
2023-05-02T15:25:12.977Z,35.82
2023-05-02T15:27:46.169Z,36.11
2023-05-02T15:30:20.071Z,35.32
2023-05-02T15:32:53.644Z,34.95
2023-05-02T15:35:26.422Z,35.37
2023-05-02T15:37:59.342Z,35.49
2023-05-02T15:40:32.223Z,36.00
2023-05-02T15:43:05.057Z,36.61
2023-05-02T15:45:39.337Z,36.47
2023-05-02T15:48:11.283Z,37.49
2023-05-02T15:50:44.950Z,37.15
2023-05-02T15:53:19.354Z,37.28
2023-05-02T15:55:53.543Z,37.80
2023-05-02T15:58:26.547Z,38.59
2023-05-02T16:00:59.663Z,39.27
2023-05-02T16:03:34.717Z,39.91
2023-05-02T16:06:08.169Z,40.11
2023-05-02T16:08:41.930Z,40.28
2023-05-02T16:11:15.179Z,40.39
2023-05-02T16:13:48.286Z,40.49
2023-05-02T16:16:21.122Z,40.96
2023-05-02T16:18:54.228Z,41.37
2023-05-02T16:21:27.254Z,41.83
2023-05-02T16:24:00.213Z,42.33
2023-05-02T16:26:35.573Z,42.48
2023-05-02T16:29:08.431Z,42.67
2023-05-02T16:31:43.624Z,43.12
2023-05-02T16:34:15.908Z,43.02
2023-05-02T16:36:49.029Z,43.38
2023-05-02T16:39:22.095Z,43.85
2023-05-02T16:41:55.381Z,43.81
2023-05-02T16:44:28.434Z,43.93
2023-05-02T16:47:01.459Z,43.81
2023-05-02T16:49:34.488Z,44.02
2023-05-02T16:52:07.499Z,44.45
2023-05-02T16:54:40.470Z,44.98
2023-05-02T16:57:15.311Z,45.60
2023-05-02T16:59:50.746Z,46.81
2023-05-02T17:02:23.960Z,47.84
2023-05-02T17:04:56.907Z,48.48
2023-05-02T17:07:29.893Z,49.21
2023-05-02T17:10:04.288Z,49.89
2023-05-02T17:12:37.805Z,50.57
2023-05-02T17:15:11.700Z,52.04
2023-05-02T17:17:45.145Z,53.15
2023-05-02T17:20:21.004Z,53.61
2023-05-02T17:22:54.746Z,54.24
2023-05-02T17:25:27.916Z,55.08
2023-05-02T17:28:00.817Z,55.76
2023-05-02T17:30:34.233Z,56.69
2023-05-02T17:33:07.282Z,56.76
2023-05-02T17:35:40.685Z,57.20
2023-05-02T17:38:13.630Z,57.96
2023-05-02T17:40:46.425Z,58.01
2023-05-02T17:43:19.450Z,58.45
2023-05-02T17:45:52.643Z,58.72
2023-05-02T17:48:25.833Z,58.59
2023-05-02T17:51:00.593Z,57.92
2023-05-02T17:53:35.825Z,57.95
2023-05-02T17:56:08.856Z,59.88
2023-05-02T17:58:41.964Z,60.69
2023-05-02T18:01:15.998Z,61.12
2023-05-02T18:03:49.464Z,61.61
2023-05-02T18:06:22.558Z,62.33
2023-05-02T18:08:55.737Z,62.28
2023-05-02T18:11:31.981Z,62.14
2023-05-02T18:14:06.506Z,62.42
2023-05-02T18:16:41.022Z,63.27
2023-05-02T18:19:13.909Z,64.09
2023-05-02T18:21:47.121Z,65.30
2023-05-02T18:24:20.148Z,65.98
2023-05-02T18:26:53.422Z,67.47
2023-05-02T18:29:27.134Z,68.10
2023-05-02T18:32:00.166Z,68.28
2023-05-02T18:34:36.925Z,69.57
2023-05-02T18:37:10.105Z,70.42
2023-05-02T18:39:43.024Z,71.12
2023-05-02T18:42:16.241Z,72.51
2023-05-02T18:44:49.219Z,73.39
2023-05-02T18:47:22.454Z,74.04
2023-05-02T18:49:59.319Z,74.81
2023-05-02T18:52:32.983Z,75.58
2023-05-02T18:55:06.822Z,76.29
2023-05-02T18:57:40.069Z,76.00
2023-05-02T19:00:14.403Z,76.49
2023-05-02T19:02:48.132Z,76.58
2023-05-02T19:05:21.416Z,77.20
2023-05-02T19:07:54.293Z,78.06
2023-05-02T19:10:27.396Z,78.56
2023-05-02T19:13:00.304Z,78.84
2023-05-02T19:15:35.548Z,79.24
2023-05-02T19:18:08.967Z,79.75
2023-05-02T19:20:41.933Z,80.19
2023-05-02T19:23:20.060Z,80.84
2023-05-02T19:25:50.600Z,80.96
2023-05-02T19:28:23.677Z,80.81
2023-05-02T19:30:56.440Z,81.42
2023-05-02T19:33:29.426Z,81.46
2023-05-02T19:36:02.556Z,80.88
2023-05-02T19:38:36.715Z,81.17
2023-05-02T19:41:10.025Z,81.50
2023-05-02T19:43:42.973Z,82.27
2023-05-02T19:46:19.514Z,82.53
2023-05-02T19:48:52.854Z,82.71
2023-05-02T19:51:29.929Z,82.89
2023-05-02T19:54:02.991Z,83.41
2023-05-02T19:56:36.889Z,83.63
2023-05-02T19:59:09.959Z,84.45
2023-05-02T20:01:43.003Z,84.32
2023-05-02T20:04:16.285Z,84.32
2023-05-02T20:06:49.554Z,84.53
2023-05-02T20:09:22.485Z,85.08
2023-05-02T20:11:55.231Z,85.32
2023-05-02T20:14:28.020Z,85.57
2023-05-02T20:17:02.152Z,85.65
2023-05-02T20:19:35.362Z,85.27
2023-05-02T20:22:08.407Z,85.53
2023-05-02T20:24:41.605Z,85.78
2023-05-02T20:27:14.599Z,85.88
2023-05-02T20:29:47.579Z,85.96
2023-05-02T20:32:21.782Z,86.46
2023-05-02T20:34:53.921Z,86.48
2023-05-02T20:37:26.746Z,86.03
2023-05-02T20:40:00.493Z,85.74
2023-05-02T20:42:34.121Z,85.79
2023-05-02T20:45:08.567Z,85.85
2023-05-02T20:47:42.223Z,85.90
2023-05-02T20:50:16.652Z,85.58
2023-05-02T20:52:49.702Z,85.79
2023-05-02T20:55:23.311Z,85.73
2023-05-02T20:57:55.878Z,85.84
2023-05-02T21:00:28.951Z,85.95
2023-05-02T21:03:02.274Z,86.36
2023-05-02T21:05:35.445Z,86.30
2023-05-02T21:08:08.815Z,86.42
2023-05-02T21:10:41.562Z,86.73
2023-05-02T21:13:14.508Z,86.93
2023-05-02T21:15:47.592Z,87.13
2023-05-02T21:18:21.376Z,87.27
2023-05-02T21:20:54.114Z,87.13
2023-05-02T21:23:27.092Z,86.99
2023-05-02T21:25:59.925Z,87.03
2023-05-02T21:28:33.697Z,87.20
2023-05-02T21:31:08.378Z,87.27
2023-05-02T21:33:41.978Z,87.49
2023-05-02T21:36:15.132Z,87.72
2023-05-02T21:38:47.997Z,88.26
2023-05-02T21:41:21.140Z,88.52
2023-05-02T21:43:54.495Z,88.79
2023-05-02T21:46:27.708Z,89.13
2023-05-02T21:49:00.802Z,89.57
2023-05-02T21:51:34.719Z,89.71
2023-05-02T21:54:07.723Z,90.17
2023-05-02T21:56:40.789Z,90.02
2023-05-02T21:59:14.023Z,89.84
2023-05-02T22:01:46.692Z,90.45
2023-05-02T22:04:21.104Z,90.72
2023-05-02T22:06:54.692Z,91.35
2023-05-02T22:09:29.039Z,91.59
2023-05-02T22:12:03.169Z,92.15
2023-05-02T22:14:44.424Z,92.93
2023-05-02T22:17:10.712Z,93.18
2023-05-02T22:19:43.533Z,93.49
2023-05-02T22:22:16.466Z,93.99
2023-05-02T22:24:51.261Z,94.26
2023-05-02T22:27:24.014Z,94.66
2023-05-02T22:29:57.490Z,95.20
2023-05-02T22:32:30.352Z,95.53
2023-05-02T22:35:04.196Z,95.64
2023-05-02T22:37:37.035Z,95.85
2023-05-02T22:40:11.650Z,95.80
2023-05-02T22:42:44.591Z,95.85
2023-05-02T22:45:17.834Z,96.07
2023-05-02T22:47:52.557Z,96.39
2023-05-02T22:50:26.487Z,96.58
2023-05-02T22:52:59.853Z,96.89
2023-05-02T22:55:32.953Z,97.24
2023-05-02T22:58:06.089Z,97.50
2023-05-02T23:00:38.808Z,97.00
2023-05-02T23:03:12.278Z,97.11
2023-05-02T23:05:45.256Z,96.54
2023-05-02T23:08:20.632Z,96.51
2023-05-02T23:10:53.656Z,96.31
2023-05-02T23:13:27.358Z,96.50
2023-05-02T23:16:00.276Z,96.05
2023-05-02T23:18:33.297Z,95.54
2023-05-02T23:21:06.692Z,95.10
2023-05-02T23:23:39.492Z,94.56
2023-05-02T23:26:13.382Z,94.13
2023-05-02T23:28:46.258Z,94.54
2023-05-02T23:31:19.835Z,95.21
2023-05-02T23:33:52.670Z,95.16
2023-05-02T23:36:26.042Z,94.86
2023-05-02T23:38:59.003Z,95.61
2023-05-02T23:41:32.379Z,95.95
2023-05-02T23:44:06.242Z,96.40
2023-05-02T23:46:39.823Z,96.32
2023-05-02T23:49:12.692Z,96.29
2023-05-02T23:51:46.455Z,96.62
2023-05-02T23:54:19.326Z,96.80
2023-05-02T23:56:52.550Z,96.90
2023-05-02T23:59:25.720Z,97.11
